createdAt,value
2022-12-03T00:00:58.993Z,26.70
2022-12-03T00:03:30.731Z,26.10
2022-12-03T00:06:01.577Z,26.50
2022-12-03T00:08:32.466Z,25.00
2022-12-03T00:11:03.429Z,18.60
2022-12-03T00:13:34.290Z,21.50
2022-12-03T00:16:05.700Z,25.20
2022-12-03T00:18:36.729Z,29.70
2022-12-03T00:21:08.139Z,31.10
2022-12-03T00:23:42.225Z,29.10
2022-12-03T00:26:13.852Z,28.70
2022-12-03T00:28:44.738Z,27.80
2022-12-03T00:31:15.597Z,27.60
2022-12-03T00:33:46.571Z,27.20
2022-12-03T00:36:17.453Z,23.70
2022-12-03T00:38:48.805Z,25.10
2022-12-03T00:41:19.793Z,26.30
2022-12-03T00:43:50.683Z,25.50
2022-12-03T00:46:21.968Z,25.90
2022-12-03T00:48:53.105Z,30.80
2022-12-03T00:51:23.964Z,31.60
2022-12-03T00:53:55.048Z,30.40
2022-12-03T00:56:26.319Z,29.60
2022-12-03T00:58:57.296Z,30.80
2022-12-03T01:01:28.697Z,26.80
2022-12-03T01:04:00.018Z,25.70
2022-12-03T01:06:30.893Z,26.10
2022-12-03T01:09:01.884Z,25.70
2022-12-03T01:11:38.804Z,24.60
2022-12-03T01:14:11.949Z,23.60
2022-12-03T01:16:43.658Z,23.20
2022-12-03T01:19:16.424Z,24.40
2022-12-03T01:21:48.891Z,21.50
2022-12-03T01:24:22.901Z,29.00
2022-12-03T01:26:55.787Z,30.40
2022-12-03T01:29:26.808Z,31.30
2022-12-03T01:32:15.381Z,29.30
2022-12-03T01:34:47.032Z,27.90
2022-12-03T01:37:18.618Z,24.90
2022-12-03T01:39:49.495Z,27.30
2022-12-03T01:42:22.953Z,24.80
2022-12-03T01:44:57.224Z,24.80
2022-12-03T01:47:32.174Z,24.70
2022-12-03T01:50:07.603Z,24.30
2022-12-03T01:52:40.387Z,24.20
2022-12-03T01:55:17.692Z,21.30
2022-12-03T01:57:51.389Z,23.00
2022-12-03T02:00:27.806Z,25.00
2022-12-03T02:03:01.570Z,26.70
2022-12-03T02:05:34.354Z,26.90
2022-12-03T02:08:18.741Z,28.40
2022-12-03T02:10:49.655Z,22.40
2022-12-03T02:13:20.734Z,23.20
2022-12-03T02:15:51.727Z,23.40
2022-12-03T02:18:22.864Z,22.60
2022-12-03T02:21:04.258Z,20.10
2022-12-03T02:23:42.975Z,21.40
2022-12-03T02:26:14.129Z,20.20
2022-12-03T02:28:45.188Z,20.00
2022-12-03T02:31:16.352Z,20.40
2022-12-03T02:33:47.454Z,22.30
2022-12-03T02:36:19.318Z,23.00
2022-12-03T02:38:51.854Z,21.90
2022-12-03T02:41:41.067Z,21.70
2022-12-03T02:44:12.804Z,20.60
2022-12-03T02:46:44.357Z,20.90
2022-12-03T02:49:15.327Z,20.30
2022-12-03T02:51:46.472Z,18.70
2022-12-03T02:54:17.507Z,19.00
2022-12-03T02:56:48.366Z,19.80
2022-12-03T02:59:19.454Z,19.00
2022-12-03T03:01:50.314Z,19.10
2022-12-03T03:04:22.511Z,20.00
2022-12-03T03:06:54.034Z,15.60
2022-12-03T03:09:25.304Z,17.60
2022-12-03T03:11:56.441Z,19.40
2022-12-03T03:14:27.387Z,19.30
2022-12-03T03:16:59.016Z,24.20
2022-12-03T03:19:30.499Z,23.00
2022-12-03T03:22:02.361Z,23.10
2022-12-03T03:24:33.710Z,21.10
2022-12-03T03:27:05.407Z,20.70
2022-12-03T03:29:37.010Z,17.10
2022-12-03T03:32:08.255Z,17.50
2022-12-03T03:34:39.180Z,17.80
2022-12-03T03:37:10.122Z,18.80
2022-12-03T03:39:40.985Z,18.10
2022-12-03T03:42:12.241Z,18.30
2022-12-03T03:44:43.280Z,18.70
2022-12-03T03:47:15.226Z,15.90
2022-12-03T03:49:48.048Z,17.50
2022-12-03T03:52:19.444Z,19.30
2022-12-03T03:54:51.013Z,19.30
2022-12-03T03:57:22.158Z,21.10
2022-12-03T03:59:53.018Z,23.80
2022-12-03T04:02:26.133Z,22.70
2022-12-03T04:04:57.043Z,21.70
2022-12-03T04:07:28.914Z,20.60
2022-12-03T04:09:59.854Z,21.40
2022-12-03T04:12:48.295Z,19.10
2022-12-03T04:15:19.370Z,17.80
2022-12-03T04:18:10.944Z,18.70
2022-12-03T04:20:42.119Z,16.40
2022-12-03T04:23:12.980Z,17.50
2022-12-03T04:26:01.671Z,28.80
2022-12-03T04:28:49.163Z,19.30
2022-12-03T04:31:37.584Z,18.30
2022-12-03T04:34:26.144Z,17.90
2022-12-03T04:36:57.260Z,15.70
2022-12-03T04:39:28.021Z,16.90
2022-12-03T04:41:58.959Z,20.20
2022-12-03T04:44:36.869Z,24.20
2022-12-03T04:47:10.624Z,23.10
2022-12-03T04:49:43.137Z,22.90
2022-12-03T04:52:15.622Z,23.70
2022-12-03T04:54:47.187Z,20.60
2022-12-03T04:57:18.121Z,19.30
2022-12-03T04:59:49.060Z,19.20
2022-12-03T05:02:20.242Z,20.60
2022-12-03T05:04:51.401Z,16.70
2022-12-03T05:07:22.496Z,19.20
2022-12-03T05:09:53.527Z,19.60
2022-12-03T05:12:24.476Z,19.10
2022-12-03T05:14:55.690Z,19.30
2022-12-03T05:17:26.972Z,17.90
2022-12-03T05:20:15.598Z,15.50
2022-12-03T05:22:46.390Z,16.70
2022-12-03T05:25:17.515Z,21.70
2022-12-03T05:27:48.422Z,20.40
2022-12-03T05:30:19.980Z,23.10
2022-12-03T05:32:51.239Z,24.40
2022-12-03T05:35:22.303Z,22.40
2022-12-03T05:37:53.204Z,20.00
2022-12-03T05:40:24.277Z,20.20
2022-12-03T05:42:55.290Z,20.50
2022-12-03T05:45:28.932Z,20.00
2022-12-03T05:48:00.991Z,18.00
2022-12-03T05:50:35.188Z,19.50
2022-12-03T05:53:20.091Z,16.80
2022-12-03T05:55:51.378Z,21.40
2022-12-03T05:58:22.259Z,18.80
2022-12-03T06:00:53.080Z,17.10
2022-12-03T06:03:24.018Z,17.90
2022-12-03T06:05:55.084Z,20.70
2022-12-03T06:08:25.919Z,22.00
2022-12-03T06:10:56.741Z,22.80
2022-12-03T06:13:27.698Z,20.40
2022-12-03T06:15:58.593Z,22.20
2022-12-03T06:18:29.581Z,21.00
2022-12-03T06:21:00.769Z,20.30
2022-12-03T06:23:31.583Z,20.60
2022-12-03T06:26:02.333Z,19.20
2022-12-03T06:28:33.159Z,18.10
2022-12-03T06:31:03.974Z,19.60
2022-12-03T06:33:35.165Z,20.90
2022-12-03T06:36:06.824Z,19.60
2022-12-03T06:38:37.717Z,20.70
2022-12-03T06:41:08.756Z,22.60
2022-12-03T06:43:39.619Z,22.10
2022-12-03T06:46:10.530Z,22.00
2022-12-03T06:48:41.479Z,21.90
2022-12-03T06:51:12.494Z,18.40
2022-12-03T06:53:43.359Z,20.90
2022-12-03T06:56:14.429Z,20.50
2022-12-03T06:58:45.344Z,19.60
2022-12-03T07:01:16.366Z,21.10
2022-12-03T07:03:47.653Z,19.90
2022-12-03T07:06:18.879Z,18.90
2022-12-03T07:08:49.731Z,17.80
2022-12-03T07:11:32.757Z,21.00
2022-12-03T07:14:06.361Z,25.00
2022-12-03T07:16:38.035Z,23.30
2022-12-03T07:19:09.879Z,21.50
2022-12-03T07:21:41.121Z,21.50
2022-12-03T07:24:12.599Z,20.80
2022-12-03T07:26:43.402Z,19.30
2022-12-03T07:29:14.250Z,19.60
2022-12-03T07:31:45.066Z,19.70
2022-12-03T07:34:15.862Z,21.00
2022-12-03T07:36:46.756Z,20.80
2022-12-03T07:39:17.898Z,18.80
2022-12-03T07:41:48.700Z,18.90
2022-12-03T07:44:19.537Z,22.40
2022-12-03T07:46:50.584Z,24.90
2022-12-03T07:49:21.465Z,25.20
2022-12-03T07:51:54.631Z,24.10
2022-12-03T07:54:26.119Z,22.80
2022-12-03T07:57:01.402Z,20.80
2022-12-03T07:59:32.951Z,20.60
2022-12-03T08:02:03.986Z,20.30
2022-12-03T08:04:34.910Z,20.70
2022-12-03T08:07:06.363Z,17.80
2022-12-03T08:09:38.841Z,20.60
2022-12-03T08:12:16.997Z,20.30
2022-12-03T08:14:47.790Z,18.00
2022-12-03T08:17:20.006Z,18.50
2022-12-03T08:19:51.206Z,19.00
2022-12-03T08:22:22.452Z,21.50
2022-12-03T08:24:53.576Z,24.90
2022-12-03T08:27:24.809Z,22.10
2022-12-03T08:30:07.850Z,20.80
2022-12-03T08:32:38.697Z,20.90
2022-12-03T08:35:14.784Z,19.00
2022-12-03T08:37:45.536Z,18.90
2022-12-03T08:40:28.344Z,18.50
2022-12-03T08:42:59.129Z,21.10
2022-12-03T08:45:39.979Z,20.60
2022-12-03T08:48:29.599Z,19.10
2022-12-03T08:51:01.895Z,22.40
2022-12-03T08:53:37.839Z,26.30
2022-12-03T08:56:20.941Z,25.20
2022-12-03T08:58:54.868Z,25.00
2022-12-03T09:01:35.471Z,24.20
2022-12-03T09:04:22.722Z,21.30
2022-12-03T09:06:54.497Z,19.20
2022-12-03T09:09:25.828Z,23.50
2022-12-03T09:11:57.015Z,18.90
2022-12-03T09:14:29.071Z,21.60
2022-12-03T09:16:59.993Z,21.60
2022-12-03T09:19:32.121Z,20.90
2022-12-03T09:22:02.935Z,19.30
2022-12-03T09:24:33.759Z,21.90
2022-12-03T09:27:04.632Z,24.70
2022-12-03T09:29:35.630Z,24.40
2022-12-03T09:32:06.959Z,25.00
2022-12-03T09:34:38.013Z,23.50
2022-12-03T09:37:09.343Z,23.70
2022-12-03T09:39:40.507Z,23.80
2022-12-03T09:42:12.575Z,20.50
2022-12-03T09:44:43.637Z,23.30
2022-12-03T09:47:15.295Z,23.10
2022-12-03T09:49:46.511Z,20.10
2022-12-03T09:52:24.932Z,22.10
2022-12-03T09:54:56.762Z,20.40
2022-12-03T09:57:27.781Z,21.00
2022-12-03T09:59:58.697Z,23.40
2022-12-03T10:02:34.378Z,23.00
2022-12-03T10:07:34.734Z,24.40
2022-12-03T10:10:07.840Z,24.50
2022-12-03T10:12:38.731Z,21.40
2022-12-03T10:15:15.025Z,22.20
2022-12-03T10:17:46.930Z,21.50
2022-12-03T10:20:20.413Z,24.40
2022-12-03T10:22:51.677Z,22.40
2022-12-03T10:25:24.550Z,21.70
2022-12-03T10:28:01.428Z,21.90
2022-12-03T10:30:32.970Z,22.90
2022-12-03T10:33:18.859Z,23.90
2022-12-03T10:35:50.455Z,24.80
2022-12-03T10:38:24.190Z,25.70
2022-12-03T10:40:55.497Z,25.40
2022-12-03T10:43:27.563Z,24.10
2022-12-03T10:46:18.303Z,24.20
2022-12-03T10:49:17.101Z,21.70
2022-12-03T10:51:49.189Z,22.50
2022-12-03T10:54:22.395Z,25.60
2022-12-03T10:56:54.750Z,22.90
2022-12-03T10:59:29.437Z,21.70
2022-12-03T11:02:00.631Z,22.40
2022-12-03T11:04:36.015Z,25.90
2022-12-03T11:09:46.993Z,24.80
2022-12-03T11:12:24.623Z,26.30
2022-12-03T11:15:08.073Z,26.80
2022-12-03T11:17:49.071Z,23.80
2022-12-03T11:20:57.150Z,21.50
2022-12-03T11:24:17.528Z,26.40
2022-12-03T11:27:20.460Z,23.50
2022-12-03T11:30:03.159Z,22.60
2022-12-03T11:33:06.846Z,22.20
2022-12-03T11:36:15.580Z,25.40
2022-12-03T11:38:58.200Z,25.20
2022-12-03T11:41:32.599Z,24.60
2022-12-03T11:44:34.405Z,22.60
2022-12-03T11:47:15.150Z,22.40
2022-12-03T11:49:52.592Z,23.90
2022-12-03T11:52:40.730Z,24.40
2022-12-03T11:55:25.665Z,24.40
2022-12-03T11:58:02.004Z,23.30
2022-12-03T12:00:34.844Z,22.00
2022-12-03T12:03:06.237Z,24.10
2022-12-03T12:05:37.981Z,24.90
2022-12-03T12:08:21.466Z,24.60
2022-12-03T12:10:52.436Z,24.40
2022-12-03T12:13:44.999Z,23.30
2022-12-03T12:16:41.429Z,24.50
2022-12-03T12:22:31.780Z,21.30
2022-12-03T12:25:03.943Z,22.70
2022-12-03T12:27:41.096Z,21.90
2022-12-03T12:30:16.907Z,20.50
2022-12-03T12:32:50.226Z,21.80
2022-12-03T12:35:23.577Z,23.30
2022-12-03T12:38:01.782Z,27.30
2022-12-03T12:40:36.302Z,24.10
2022-12-03T12:43:24.083Z,24.80
2022-12-03T12:45:58.075Z,22.90
2022-12-03T12:48:33.012Z,24.20
2022-12-03T12:51:12.846Z,24.50
2022-12-03T12:53:44.762Z,23.70
2022-12-03T12:56:24.767Z,23.10
2022-12-03T12:58:58.272Z,21.40
2022-12-03T13:01:31.760Z,24.70
2022-12-03T13:04:03.504Z,28.10
2022-12-03T13:06:35.802Z,29.00
2022-12-03T13:09:10.304Z,24.90
2022-12-03T13:11:46.033Z,26.20
2022-12-03T13:14:23.263Z,26.30
2022-12-03T13:16:56.172Z,23.60
2022-12-03T13:19:29.030Z,25.50
2022-12-03T13:22:02.129Z,24.20
2022-12-03T13:24:37.163Z,24.50
2022-12-03T13:27:26.689Z,25.80
2022-12-03T13:30:00.986Z,28.70
2022-12-03T13:32:34.818Z,25.80
2022-12-03T13:35:16.258Z,27.40
2022-12-03T13:37:47.577Z,24.50
2022-12-03T13:40:27.272Z,25.50
2022-12-03T13:42:58.394Z,26.10
2022-12-03T13:45:36.960Z,22.70
2022-12-03T13:48:21.326Z,24.50
2022-12-03T13:50:53.739Z,25.80
2022-12-03T13:53:26.598Z,23.50
2022-12-03T13:56:02.335Z,25.00
2022-12-03T13:58:33.116Z,27.70
2022-12-03T14:01:04.331Z,26.50
2022-12-03T14:03:36.330Z,26.40
2022-12-03T14:06:08.363Z,29.30
2022-12-03T14:08:39.216Z,26.10
2022-12-03T14:11:32.393Z,24.70
2022-12-03T14:14:03.546Z,27.80
2022-12-03T14:16:34.458Z,27.80
2022-12-03T14:19:06.374Z,26.40
2022-12-03T14:21:37.587Z,31.00
2022-12-03T14:24:10.193Z,27.80
2022-12-03T14:26:42.788Z,28.00
2022-12-03T14:29:13.695Z,27.70
2022-12-03T14:31:44.711Z,26.40
2022-12-03T14:34:16.725Z,26.80
2022-12-03T14:36:48.455Z,24.40
2022-12-03T14:39:19.671Z,27.90
2022-12-03T14:42:10.160Z,30.30
2022-12-03T14:44:43.317Z,30.00
2022-12-03T14:47:16.414Z,27.10
2022-12-03T14:49:47.632Z,27.40
2022-12-03T14:52:19.484Z,27.30
2022-12-03T14:54:50.484Z,27.60
2022-12-03T14:57:21.590Z,27.30
2022-12-03T14:59:53.120Z,26.50
2022-12-03T15:02:24.504Z,27.40
2022-12-03T15:04:56.743Z,29.00
2022-12-03T15:07:28.292Z,29.20
2022-12-03T15:09:59.696Z,30.50
2022-12-03T15:12:34.948Z,28.20
2022-12-03T15:17:36.040Z,26.20
2022-12-03T15:20:08.900Z,26.10
2022-12-03T15:22:39.713Z,26.30
2022-12-03T15:25:11.696Z,30.10
2022-12-03T15:27:44.056Z,30.30
2022-12-03T15:30:15.515Z,31.70
2022-12-03T15:32:47.508Z,29.50
2022-12-03T15:35:19.080Z,29.10
2022-12-03T15:37:50.179Z,28.60
2022-12-03T15:40:23.167Z,28.10
2022-12-03T15:43:00.568Z,25.00
2022-12-03T15:45:32.554Z,23.70
2022-12-03T15:48:03.775Z,30.40
2022-12-03T15:50:39.918Z,31.00
2022-12-03T15:53:15.466Z,29.80
2022-12-03T15:55:46.683Z,31.00
2022-12-03T15:58:17.549Z,29.00
2022-12-03T16:00:48.377Z,29.90
2022-12-03T16:03:19.509Z,30.30
2022-12-03T16:05:52.125Z,29.90
2022-12-03T16:08:24.232Z,28.20
2022-12-03T16:10:55.590Z,29.20
2022-12-03T16:13:26.514Z,30.90
2022-12-03T16:15:57.462Z,32.00
2022-12-03T16:18:29.048Z,31.00
2022-12-03T16:20:59.900Z,29.30
2022-12-03T16:23:31.295Z,30.40
2022-12-03T16:26:02.264Z,30.50
2022-12-03T16:28:33.924Z,28.80
2022-12-03T16:31:05.113Z,28.60
2022-12-03T16:33:36.134Z,29.40
2022-12-03T16:36:07.954Z,30.30
2022-12-03T16:38:38.852Z,31.70
2022-12-03T16:41:10.464Z,32.70
2022-12-03T16:43:41.479Z,31.20
2022-12-03T16:46:25.790Z,31.60
2022-12-03T16:48:58.744Z,30.60
2022-12-03T16:51:31.201Z,19.90
2022-12-03T16:54:02.012Z,30.60
2022-12-03T16:56:33.229Z,30.50
2022-12-03T16:59:04.395Z,32.00
2022-12-03T17:01:35.538Z,34.90
2022-12-03T17:04:06.673Z,33.80
2022-12-03T17:06:37.758Z,34.80
2022-12-03T17:09:08.599Z,33.90
2022-12-03T17:11:39.716Z,32.10
2022-12-03T17:14:10.531Z,28.60
2022-12-03T17:16:41.322Z,33.70
2022-12-03T17:19:12.755Z,32.80
2022-12-03T17:21:43.748Z,33.90
2022-12-03T17:24:14.819Z,35.70
2022-12-03T17:26:46.369Z,35.20
2022-12-03T17:29:17.467Z,35.20
2022-12-03T17:31:48.410Z,35.70
2022-12-03T17:34:19.556Z,36.20
2022-12-03T17:36:50.776Z,34.50
2022-12-03T17:39:21.858Z,32.30
2022-12-03T17:41:53.305Z,34.20
2022-12-03T17:44:24.552Z,35.90
2022-12-03T17:46:55.815Z,32.60
2022-12-03T17:49:31.581Z,38.80
2022-12-03T17:52:03.341Z,38.50
2022-12-03T17:55:08.608Z,38.60
2022-12-03T17:57:32.743Z,38.70
2022-12-03T18:00:10.896Z,35.40
2022-12-03T18:02:46.621Z,36.80
2022-12-03T18:05:18.104Z,36.30
2022-12-03T18:07:49.302Z,38.10
2022-12-03T18:10:21.370Z,42.10
2022-12-03T18:13:01.305Z,39.20
2022-12-03T18:15:33.561Z,40.50
2022-12-03T18:18:05.052Z,36.60
2022-12-03T18:20:37.456Z,37.90
2022-12-03T18:23:08.745Z,37.60
2022-12-03T18:25:40.820Z,37.20
2022-12-03T18:28:11.851Z,36.50
2022-12-03T18:30:47.533Z,37.50
2022-12-03T18:33:23.430Z,37.10
2022-12-03T18:35:58.408Z,39.40
2022-12-03T18:38:32.654Z,39.70
2022-12-03T18:41:03.616Z,42.00
2022-12-03T18:43:34.760Z,38.60
2022-12-03T18:46:09.659Z,38.00
2022-12-03T18:48:48.954Z,40.40
2022-12-03T18:51:22.182Z,35.80
2022-12-03T18:53:53.761Z,41.20
2022-12-03T18:56:24.889Z,33.80
2022-12-03T18:58:55.967Z,41.50
2022-12-03T19:01:27.459Z,34.20
2022-12-03T19:03:58.642Z,38.80
2022-12-03T19:06:30.685Z,35.50
2022-12-03T19:09:01.867Z,41.80
2022-12-03T19:11:34.076Z,38.40
2022-12-03T19:14:05.269Z,37.90
2022-12-03T19:16:45.605Z,38.30
2022-12-03T19:19:16.617Z,40.40
2022-12-03T19:21:47.477Z,26.40
2022-12-03T19:24:25.902Z,38.20
2022-12-03T19:26:56.883Z,40.20
2022-12-03T19:29:28.005Z,37.60
2022-12-03T19:32:04.064Z,38.70
2022-12-03T19:34:35.137Z,38.10
2022-12-03T19:37:08.826Z,36.10
2022-12-03T19:39:39.897Z,38.10
2022-12-03T19:42:10.788Z,36.40
2022-12-03T19:44:41.952Z,39.50
2022-12-03T19:47:13.838Z,37.90
2022-12-03T19:49:44.959Z,41.70
2022-12-03T19:52:15.872Z,39.90
2022-12-03T19:54:47.594Z,38.20
2022-12-03T19:57:23.325Z,36.00
2022-12-03T19:59:55.240Z,40.60
2022-12-03T20:02:26.619Z,35.90
2022-12-03T20:04:57.826Z,42.20
2022-12-03T20:07:28.690Z,40.70
2022-12-03T20:09:59.871Z,32.70
2022-12-03T20:12:31.013Z,38.10
2022-12-03T20:15:01.857Z,36.20
2022-12-03T20:17:32.856Z,36.60
2022-12-03T20:20:04.150Z,38.00
2022-12-03T20:22:35.234Z,36.40
2022-12-03T20:25:06.695Z,40.40
2022-12-03T20:27:37.963Z,38.20
2022-12-03T20:30:11.452Z,36.00
2022-12-03T20:32:45.444Z,37.20
2022-12-03T20:35:16.904Z,37.00
2022-12-03T20:37:47.879Z,33.00
2022-12-03T20:40:19.221Z,36.20
2022-12-03T20:42:51.048Z,38.40
2022-12-03T20:45:22.237Z,40.20
2022-12-03T20:47:53.656Z,35.50
2022-12-03T20:50:24.801Z,34.10
2022-12-03T20:53:16.672Z,38.10
2022-12-03T20:55:46.768Z,33.40
2022-12-03T20:58:17.943Z,31.10
2022-12-03T21:00:49.185Z,25.80
2022-12-03T21:03:20.441Z,29.20
2022-12-03T21:05:51.369Z,32.00
2022-12-03T21:08:40.059Z,19.90
2022-12-03T21:11:14.609Z,29.30
2022-12-03T21:13:46.295Z,35.40
2022-12-03T21:16:34.221Z,37.30
2022-12-03T21:19:11.059Z,33.70
2022-12-03T21:21:42.208Z,33.20
2022-12-03T21:24:14.500Z,31.20
2022-12-03T21:26:45.420Z,34.50
2022-12-03T21:29:16.497Z,37.50
2022-12-03T21:31:47.729Z,37.20
2022-12-03T21:34:18.868Z,37.70
2022-12-03T21:36:49.990Z,39.20
2022-12-03T21:39:21.144Z,38.30
2022-12-03T21:42:18.975Z,34.60
2022-12-03T21:44:43.374Z,39.30
2022-12-03T21:47:14.743Z,30.70
2022-12-03T21:49:46.160Z,35.80
2022-12-03T21:52:17.175Z,35.60
2022-12-03T21:54:48.542Z,33.40
2022-12-03T21:57:19.528Z,34.90
2022-12-03T21:59:50.721Z,37.90
2022-12-03T22:02:22.103Z,37.40
2022-12-03T22:04:53.770Z,38.20
2022-12-03T22:07:25.152Z,40.90
2022-12-03T22:09:56.682Z,39.40
2022-12-03T22:12:28.143Z,38.20
2022-12-03T22:14:59.216Z,38.80
2022-12-03T22:17:30.313Z,38.70
2022-12-03T22:20:01.571Z,32.30
2022-12-03T22:22:32.699Z,38.00
2022-12-03T22:25:04.061Z,36.80
2022-12-03T22:27:34.891Z,30.50
2022-12-03T22:30:07.220Z,35.60
2022-12-03T22:32:39.075Z,39.70
2022-12-03T22:35:11.839Z,38.80
2022-12-03T22:37:42.897Z,37.40
2022-12-03T22:40:14.957Z,36.40
2022-12-03T22:42:50.761Z,30.70
2022-12-03T22:45:22.309Z,25.10
2022-12-03T22:47:53.595Z,29.40
2022-12-03T22:50:24.785Z,35.90
2022-12-03T22:52:55.813Z,28.60
2022-12-03T22:55:26.787Z,34.10
2022-12-03T22:57:57.551Z,32.60
2022-12-03T23:00:33.489Z,29.50
2022-12-03T23:03:04.626Z,32.00
2022-12-03T23:05:38.642Z,35.00
2022-12-03T23:08:11.891Z,29.40
2022-12-03T23:10:44.747Z,38.00
2022-12-03T23:13:16.967Z,35.10
2022-12-03T23:15:49.267Z,30.70
2022-12-03T23:18:21.019Z,29.60
2022-12-03T23:20:54.074Z,23.20
2022-12-03T23:23:27.386Z,29.10
2022-12-03T23:26:02.867Z,26.00
2022-12-03T23:28:35.119Z,35.00
2022-12-03T23:31:07.128Z,31.00
2022-12-03T23:33:38.684Z,32.40
2022-12-03T23:36:11.213Z,30.10
2022-12-03T23:38:42.028Z,28.70
2022-12-03T23:41:14.688Z,28.40
2022-12-03T23:43:46.100Z,29.90
2022-12-03T23:46:18.938Z,34.00
2022-12-03T23:48:50.026Z,31.40
2022-12-03T23:51:22.494Z,30.00
2022-12-03T23:53:54.051Z,31.10
2022-12-03T23:56:28.175Z,27.60
2022-12-03T23:58:59.513Z,26.70
